createdAt,value
2022-11-20T00:01:26.952Z,6.10
2022-11-20T00:03:56.223Z,5.88
2022-11-20T00:06:24.571Z,6.20
2022-11-20T00:08:55.941Z,5.80
2022-11-20T00:11:24.661Z,6.47
2022-11-20T00:13:54.009Z,6.30
2022-11-20T00:16:23.387Z,7.47
2022-11-20T00:18:51.133Z,6.93
2022-11-20T00:21:22.109Z,6.45
2022-11-20T00:23:50.498Z,5.97
2022-11-20T00:26:19.591Z,7.07
2022-11-20T00:28:55.035Z,7.32
2022-11-20T00:31:22.162Z,8.57
2022-11-20T00:33:49.416Z,9.35
2022-11-20T00:36:18.759Z,8.15
2022-11-20T00:38:46.492Z,7.50
2022-11-20T00:41:15.811Z,7.30
2022-11-20T00:43:43.573Z,7.55
2022-11-20T00:46:15.384Z,7.57
2022-11-20T00:48:43.060Z,7.72
2022-11-20T00:51:10.094Z,8.50
2022-11-20T00:53:37.046Z,8.77
2022-11-20T00:56:06.847Z,9.02
2022-11-20T00:58:39.326Z,9.02
2022-11-20T01:01:09.233Z,8.15
2022-11-20T01:03:41.041Z,7.40
2022-11-20T01:06:14.533Z,8.07
2022-11-20T01:08:41.950Z,7.88
2022-11-20T01:11:12.460Z,11.60
2022-11-20T01:13:40.120Z,8.57
2022-11-20T01:16:10.002Z,8.00
2022-11-20T01:18:38.662Z,7.25
2022-11-20T01:21:11.856Z,7.43
2022-11-20T01:23:41.304Z,7.38
2022-11-20T01:26:12.050Z,7.70
2022-11-20T01:28:39.881Z,8.20
2022-11-20T01:31:28.177Z,9.00
2022-11-20T01:33:57.999Z,10.68
2022-11-20T01:36:28.037Z,9.80
2022-11-20T01:38:56.950Z,7.28
2022-11-20T01:41:43.968Z,7.18
2022-11-20T01:44:16.052Z,6.88
2022-11-20T01:49:38.423Z,6.13
2022-11-20T01:52:20.188Z,6.10
2022-11-20T01:55:11.319Z,6.18
2022-11-20T01:57:39.762Z,5.35
2022-11-20T02:00:10.634Z,4.85
2022-11-20T02:02:43.748Z,5.00
2022-11-20T02:05:18.058Z,4.65
2022-11-20T02:07:46.183Z,3.47
2022-11-20T02:10:13.500Z,3.88
2022-11-20T02:12:59.801Z,3.67
2022-11-20T02:15:30.278Z,3.38
2022-11-20T02:17:57.960Z,3.88
2022-11-20T02:20:24.921Z,3.50
2022-11-20T02:23:20.927Z,4.05
2022-11-20T02:25:48.655Z,3.45
2022-11-20T02:28:16.542Z,3.20
2022-11-20T02:30:43.428Z,3.90
2022-11-20T02:33:10.400Z,3.47
2022-11-20T02:35:42.845Z,3.72
2022-11-20T02:38:09.902Z,4.68
2022-11-20T02:40:36.763Z,3.03
2022-11-20T02:43:04.013Z,3.53
2022-11-20T02:45:30.864Z,3.67
2022-11-20T02:47:57.774Z,3.15
2022-11-20T02:50:24.622Z,4.07
2022-11-20T02:52:51.567Z,3.47
2022-11-20T02:55:18.590Z,3.80
2022-11-20T02:57:45.511Z,3.80
2022-11-20T03:00:13.142Z,3.60
2022-11-20T03:02:40.025Z,3.60
2022-11-20T03:05:07.025Z,3.08
2022-11-20T03:07:34.010Z,3.20
2022-11-20T03:10:00.934Z,3.83
2022-11-20T03:12:27.709Z,3.85
2022-11-20T03:14:54.528Z,2.83
2022-11-20T03:17:21.403Z,3.40
2022-11-20T03:19:48.346Z,2.70
2022-11-20T03:22:15.216Z,3.00
2022-11-20T03:24:42.144Z,3.17
2022-11-20T03:27:08.928Z,3.13
2022-11-20T03:29:38.618Z,3.15
2022-11-20T03:32:05.746Z,3.05
2022-11-20T03:34:32.554Z,2.60
2022-11-20T03:36:59.415Z,2.60
2022-11-20T03:39:27.213Z,2.97
2022-11-20T03:41:54.041Z,3.22
2022-11-20T03:44:22.394Z,2.67
2022-11-20T03:46:49.308Z,2.70
2022-11-20T03:49:16.220Z,2.70
2022-11-20T03:51:43.246Z,3.30
2022-11-20T03:54:10.146Z,3.28
2022-11-20T03:56:39.008Z,3.55
2022-11-20T03:59:06.701Z,3.67
2022-11-20T04:01:36.545Z,5.38
2022-11-20T04:04:03.934Z,4.70
2022-11-20T04:06:36.336Z,5.20
2022-11-20T04:09:04.175Z,4.18
2022-11-20T04:11:33.619Z,3.65
2022-11-20T04:14:06.109Z,3.60
2022-11-20T04:16:37.427Z,3.15
2022-11-20T04:19:06.569Z,3.60
2022-11-20T04:21:33.864Z,2.70
2022-11-20T04:24:00.727Z,2.80
2022-11-20T04:26:29.328Z,2.88
2022-11-20T04:28:57.121Z,2.75
2022-11-20T04:31:29.480Z,7.55
2022-11-20T04:33:59.893Z,8.20
2022-11-20T04:36:28.801Z,6.88
2022-11-20T04:38:57.573Z,4.78
2022-11-20T04:41:29.948Z,3.67
2022-11-20T04:44:06.038Z,3.30
2022-11-20T04:46:43.880Z,3.45
2022-11-20T04:49:12.067Z,3.30
2022-11-20T04:51:39.080Z,2.92
2022-11-20T04:54:05.881Z,3.30
2022-11-20T04:56:33.028Z,3.15
2022-11-20T04:59:03.786Z,3.30
2022-11-20T05:01:31.091Z,2.70
2022-11-20T05:03:58.050Z,3.53
2022-11-20T05:06:24.940Z,3.40
2022-11-20T05:08:52.092Z,3.17
2022-11-20T05:11:21.583Z,2.75
2022-11-20T05:13:49.538Z,2.80
2022-11-20T05:16:24.440Z,3.83
2022-11-20T05:18:52.937Z,4.68
2022-11-20T05:21:20.413Z,4.53
2022-11-20T05:23:47.835Z,3.33
2022-11-20T05:26:22.743Z,2.95
2022-11-20T05:28:50.692Z,2.75
2022-11-20T05:31:27.220Z,45.63
2022-11-20T05:33:56.234Z,87.97
2022-11-20T05:36:23.640Z,9.80
2022-11-20T05:38:51.331Z,25.75
2022-11-20T05:41:20.833Z,6.03
2022-11-20T05:43:49.259Z,3.58
2022-11-20T05:46:20.348Z,3.80
2022-11-20T05:48:49.221Z,4.60
2022-11-20T05:51:19.357Z,2.67
2022-11-20T05:53:48.530Z,2.75
2022-11-20T05:56:21.329Z,3.20
2022-11-20T05:58:49.095Z,3.35
2022-11-20T06:01:21.621Z,2.90
2022-11-20T06:03:49.006Z,2.60
2022-11-20T06:06:16.934Z,3.50
2022-11-20T06:08:45.293Z,3.35
2022-11-20T06:11:13.901Z,3.83
2022-11-20T06:13:42.551Z,3.35
2022-11-20T06:16:11.058Z,5.72
2022-11-20T06:18:38.735Z,6.30
2022-11-20T06:21:10.112Z,6.07
2022-11-20T06:23:37.459Z,3.60
2022-11-20T06:26:13.004Z,3.25
2022-11-20T06:28:40.253Z,4.65
2022-11-20T06:31:08.529Z,5.82
2022-11-20T06:33:35.406Z,8.93
2022-11-20T06:36:07.456Z,7.50
2022-11-20T06:38:38.110Z,6.53
2022-11-20T06:41:12.173Z,6.00
2022-11-20T06:43:39.031Z,5.43
2022-11-20T06:46:06.276Z,3.20
2022-11-20T06:48:33.761Z,2.45
2022-11-20T06:51:00.834Z,4.03
2022-11-20T06:53:27.706Z,2.95
2022-11-20T06:55:57.701Z,3.35
2022-11-20T06:58:27.200Z,2.40
2022-11-20T07:00:54.173Z,3.00
2022-11-20T07:03:21.203Z,3.13
2022-11-20T07:05:48.008Z,5.00
2022-11-20T07:08:14.824Z,3.65
2022-11-20T07:10:41.682Z,2.80
2022-11-20T07:13:08.552Z,3.83
2022-11-20T07:15:36.064Z,3.58
2022-11-20T07:18:03.253Z,3.97
2022-11-20T07:20:30.408Z,3.92
2022-11-20T07:22:58.775Z,4.10
2022-11-20T07:25:29.653Z,5.05
2022-11-20T07:28:00.609Z,6.28
2022-11-20T07:30:28.614Z,6.82
2022-11-20T07:32:57.290Z,4.63
2022-11-20T07:35:25.583Z,4.93
2022-11-20T07:37:52.571Z,4.15
2022-11-20T07:40:20.718Z,4.10
2022-11-20T07:42:55.945Z,3.63
2022-11-20T07:45:24.697Z,4.88
2022-11-20T07:47:52.307Z,7.90
2022-11-20T07:50:20.686Z,11.60
2022-11-20T07:52:47.659Z,5.63
2022-11-20T07:55:15.043Z,18.50
2022-11-20T07:57:42.098Z,12.52
2022-11-20T08:00:11.270Z,11.30
2022-11-20T08:05:10.088Z,13.00
2022-11-20T08:07:41.939Z,8.52
2022-11-20T08:10:11.213Z,6.45
2022-11-20T08:13:04.352Z,18.73
2022-11-20T08:15:31.466Z,13.98
2022-11-20T08:18:29.259Z,14.88
2022-11-20T08:20:49.705Z,4.63
2022-11-20T08:23:16.680Z,4.45
2022-11-20T08:25:43.502Z,6.78
2022-11-20T08:28:20.169Z,5.90
2022-11-20T08:30:48.586Z,10.95
2022-11-20T08:33:15.457Z,9.75
2022-11-20T08:35:43.612Z,7.97
2022-11-20T08:38:10.681Z,5.68
2022-11-20T08:40:37.549Z,6.43
2022-11-20T08:43:04.493Z,5.18
2022-11-20T08:45:34.751Z,3.20
2022-11-20T08:48:05.763Z,2.90
2022-11-20T08:50:34.034Z,2.60
2022-11-20T08:53:05.653Z,3.10
2022-11-20T08:55:32.858Z,3.00
2022-11-20T08:57:59.708Z,2.53
2022-11-20T09:00:27.164Z,2.63
2022-11-20T09:02:53.934Z,4.32
2022-11-20T09:05:20.801Z,4.90
2022-11-20T09:07:47.639Z,5.40
2022-11-20T09:10:23.951Z,7.25
2022-11-20T09:12:52.864Z,11.32
2022-11-20T09:15:20.699Z,6.35
2022-11-20T09:17:59.973Z,5.15
2022-11-20T09:20:29.682Z,5.43
2022-11-20T09:22:57.210Z,3.90
2022-11-20T09:25:24.573Z,4.05
2022-11-20T09:28:00.548Z,4.15
2022-11-20T09:30:28.327Z,4.20
2022-11-20T09:32:55.560Z,3.72
2022-11-20T09:35:22.651Z,5.28
2022-11-20T09:37:49.769Z,2.72
2022-11-20T09:40:29.788Z,3.00
2022-11-20T09:43:00.628Z,3.42
2022-11-20T09:45:45.324Z,2.30
2022-11-20T09:48:30.833Z,2.33
2022-11-20T09:51:17.085Z,2.65
2022-11-20T09:54:01.887Z,2.35
2022-11-20T09:56:29.844Z,2.47
2022-11-20T09:59:01.217Z,6.70
2022-11-20T10:01:33.434Z,3.78
2022-11-20T10:04:03.436Z,2.90
2022-11-20T10:06:38.954Z,2.30
2022-11-20T10:09:35.507Z,3.10
2022-11-20T10:12:08.464Z,10.40
2022-11-20T10:14:38.082Z,3.78
2022-11-20T10:17:16.808Z,2.95
2022-11-20T10:20:08.383Z,4.40
2022-11-20T10:23:12.303Z,3.60
2022-11-20T10:25:49.596Z,4.10
2022-11-20T10:28:41.842Z,3.45
2022-11-20T10:31:15.764Z,2.95
2022-11-20T10:34:10.563Z,3.72
2022-11-20T10:36:43.436Z,3.80
2022-11-20T10:39:33.826Z,3.78
2022-11-20T10:42:01.849Z,3.25
2022-11-20T10:44:55.110Z,3.72
2022-11-20T10:47:23.791Z,2.88
2022-11-20T10:49:55.545Z,3.15
2022-11-20T10:52:43.408Z,3.13
2022-11-20T10:55:55.214Z,3.10
2022-11-20T10:58:48.227Z,3.50
2022-11-20T11:01:20.168Z,3.42
2022-11-20T11:03:47.647Z,3.72
2022-11-20T11:06:30.167Z,3.40
2022-11-20T11:09:02.261Z,3.42
2022-11-20T11:11:32.169Z,4.47
2022-11-20T11:14:14.718Z,3.80
2022-11-20T11:16:53.341Z,3.70
2022-11-20T11:19:20.472Z,3.53
2022-11-20T11:21:57.868Z,3.70
2022-11-20T11:24:41.657Z,3.90
2022-11-20T11:27:17.398Z,3.33
2022-11-20T11:29:45.963Z,3.95
2022-11-20T11:32:22.801Z,3.63
2022-11-20T11:35:03.474Z,3.92
2022-11-20T11:37:38.818Z,4.60
2022-11-20T11:40:24.381Z,3.88
2022-11-20T11:43:59.159Z,3.92
2022-11-20T11:46:32.924Z,4.07
2022-11-20T11:49:17.395Z,4.53
2022-11-20T11:51:53.049Z,3.92
2022-11-20T11:54:46.878Z,3.92
2022-11-20T11:57:34.507Z,3.80
2022-11-20T12:00:14.583Z,3.58
2022-11-20T12:02:55.840Z,3.90
2022-11-20T12:05:44.306Z,4.03
2022-11-20T12:08:29.430Z,4.65
2022-11-20T12:10:56.241Z,3.78
2022-11-20T12:13:35.472Z,3.72
2022-11-20T12:16:05.035Z,4.60
2022-11-20T12:18:32.356Z,4.20
2022-11-20T12:21:23.845Z,3.53
2022-11-20T12:24:36.962Z,4.18
2022-11-20T12:27:33.299Z,4.32
2022-11-20T12:30:03.129Z,4.22
2022-11-20T12:32:57.408Z,4.45
2022-11-20T12:35:56.591Z,3.40
2022-11-20T12:39:01.085Z,4.00
2022-11-20T12:42:03.088Z,4.43
2022-11-20T12:44:54.293Z,4.22
2022-11-20T12:47:38.927Z,5.97
2022-11-20T12:50:05.776Z,5.05
2022-11-20T12:52:57.635Z,4.57
2022-11-20T12:55:39.593Z,5.28
2022-11-20T12:58:44.295Z,6.32
2022-11-20T13:01:40.994Z,6.78
2022-11-20T13:04:45.123Z,7.07
2022-11-20T13:07:15.602Z,4.93
2022-11-20T13:09:47.620Z,4.90
2022-11-20T13:12:34.222Z,5.25
2022-11-20T13:15:16.583Z,4.93
2022-11-20T13:17:53.602Z,4.45
2022-11-20T13:20:20.826Z,4.20
2022-11-20T13:22:53.226Z,4.13
2022-11-20T13:25:28.341Z,4.47
2022-11-20T13:27:56.757Z,4.47
2022-11-20T13:30:28.872Z,4.57
2022-11-20T13:33:07.575Z,4.97
2022-11-20T13:35:37.499Z,4.40
2022-11-20T13:38:15.967Z,5.38
2022-11-20T13:41:21.165Z,5.75
2022-11-20T13:43:49.301Z,4.55
2022-11-20T13:46:16.684Z,4.53
2022-11-20T13:48:48.039Z,4.40
2022-11-20T13:51:29.049Z,4.45
2022-11-20T13:54:15.581Z,4.53
2022-11-20T13:57:13.385Z,4.78
2022-11-20T14:00:05.050Z,4.45
2022-11-20T14:02:38.038Z,4.82
2022-11-20T14:05:06.221Z,4.88
2022-11-20T14:07:42.580Z,4.75
2022-11-20T14:10:29.941Z,4.63
2022-11-20T14:12:58.678Z,4.07
2022-11-20T14:15:32.027Z,5.47
2022-11-20T14:17:59.718Z,5.30
2022-11-20T14:20:30.004Z,5.20
2022-11-20T14:22:57.093Z,4.40
2022-11-20T14:25:28.363Z,5.32
2022-11-20T14:28:00.181Z,4.60
2022-11-20T14:32:59.005Z,5.68
2022-11-20T14:35:29.091Z,7.45
2022-11-20T14:37:57.337Z,5.15
2022-11-20T14:40:25.777Z,6.50
2022-11-20T14:42:52.723Z,6.28
2022-11-20T14:45:20.624Z,7.78
2022-11-20T14:47:48.165Z,8.32
2022-11-20T14:50:23.809Z,6.22
2022-11-20T14:52:56.196Z,7.20
2022-11-20T14:55:36.179Z,13.35
2022-11-20T14:58:20.994Z,17.90
2022-11-20T15:01:08.059Z,10.30
2022-11-20T15:03:37.996Z,14.10
2022-11-20T15:06:06.073Z,14.60
2022-11-20T15:08:33.205Z,13.70
2022-11-20T15:11:00.096Z,18.98
2022-11-20T15:13:35.899Z,19.13
2022-11-20T15:16:04.782Z,13.98
2022-11-20T15:18:37.656Z,15.98
2022-11-20T15:21:10.846Z,9.32
2022-11-20T15:23:37.797Z,8.73
2022-11-20T15:26:18.413Z,9.40
2022-11-20T15:28:48.953Z,8.90
2022-11-20T15:31:18.594Z,7.40
2022-11-20T15:33:45.897Z,7.93
2022-11-20T15:36:13.505Z,5.50
2022-11-20T15:38:40.387Z,7.57
2022-11-20T15:41:08.008Z,9.45
2022-11-20T15:43:35.061Z,12.07
2022-11-20T15:46:06.189Z,7.38
2022-11-20T15:48:48.455Z,6.47
2022-11-20T15:51:25.708Z,5.70
2022-11-20T15:53:52.625Z,8.18
2022-11-20T15:56:19.546Z,7.78
2022-11-20T15:58:46.443Z,6.00
2022-11-20T16:01:16.193Z,6.55
2022-11-20T16:03:43.212Z,6.15
2022-11-20T16:06:10.061Z,5.25
2022-11-20T16:08:37.064Z,6.28
2022-11-20T16:11:04.263Z,5.47
2022-11-20T16:13:52.067Z,5.70
2022-11-20T16:16:31.190Z,6.53
2022-11-20T16:18:58.549Z,6.38
2022-11-20T16:21:32.432Z,5.38
2022-11-20T16:24:05.455Z,6.30
2022-11-20T16:26:33.288Z,5.63
2022-11-20T16:29:01.944Z,6.28
2022-11-20T16:31:29.080Z,6.60
2022-11-20T16:33:57.653Z,6.35
2022-11-20T16:36:26.897Z,4.85
2022-11-20T16:38:55.258Z,5.72
2022-11-20T16:41:22.533Z,9.30
2022-11-20T16:44:00.389Z,11.10
2022-11-20T16:49:04.311Z,27.73
2022-11-20T16:51:35.717Z,12.57
2022-11-20T16:54:04.800Z,15.90
2022-11-20T16:56:31.846Z,15.07
2022-11-20T16:59:00.083Z,11.60
2022-11-20T17:01:28.899Z,7.72
2022-11-20T17:03:55.940Z,6.68
2022-11-20T17:06:25.407Z,6.35
2022-11-20T17:08:53.694Z,6.57
2022-11-20T17:11:20.685Z,5.85
2022-11-20T17:13:48.140Z,6.35
2022-11-20T17:16:20.572Z,6.82
2022-11-20T17:18:50.059Z,6.63
2022-11-20T17:21:19.007Z,6.20
2022-11-20T17:23:47.342Z,6.15
2022-11-20T17:26:21.852Z,6.45
2022-11-20T17:29:03.524Z,6.85
2022-11-20T17:31:32.145Z,6.93
2022-11-20T17:34:02.439Z,5.88
2022-11-20T17:36:30.676Z,5.72
2022-11-20T17:38:58.033Z,5.95
2022-11-20T17:41:27.838Z,10.25
2022-11-20T17:43:56.894Z,8.82
2022-11-20T17:46:26.057Z,11.63
2022-11-20T17:48:53.373Z,11.30
2022-11-20T17:51:26.479Z,9.63
2022-11-20T17:53:56.418Z,8.30
2022-11-20T17:56:41.985Z,6.57
2022-11-20T17:59:11.482Z,6.15
2022-11-20T18:01:39.569Z,5.82
2022-11-20T18:04:06.718Z,7.28
2022-11-20T18:06:33.716Z,7.32
2022-11-20T18:09:02.380Z,7.80
2022-11-20T18:11:33.769Z,6.85
2022-11-20T18:14:21.039Z,5.63
2022-11-20T18:16:53.268Z,6.60
2022-11-20T18:19:28.714Z,7.28
2022-11-20T18:22:01.431Z,8.98
2022-11-20T18:24:28.373Z,6.82
2022-11-20T18:26:55.245Z,7.32
2022-11-20T18:29:22.463Z,6.97
2022-11-20T18:31:49.783Z,8.60
2022-11-20T18:34:16.924Z,8.82
2022-11-20T18:36:45.275Z,9.05
2022-11-20T18:39:13.492Z,11.65
2022-11-20T18:41:59.934Z,14.45
2022-11-20T18:44:48.087Z,15.63
2022-11-20T18:47:17.727Z,16.77
2022-11-20T18:49:52.593Z,14.88
2022-11-20T18:52:21.835Z,14.90
2022-11-20T18:54:49.176Z,14.13
2022-11-20T18:57:17.926Z,15.02
2022-11-20T18:59:45.454Z,15.05
2022-11-20T19:02:14.315Z,16.83
2022-11-20T19:04:41.626Z,21.17
2022-11-20T19:07:12.023Z,27.13
2022-11-20T19:09:43.725Z,20.20
2022-11-20T19:12:12.006Z,15.65
2022-11-20T19:14:38.965Z,21.23
2022-11-20T19:17:07.061Z,22.60
2022-11-20T19:19:35.005Z,20.00
2022-11-20T19:22:01.917Z,22.83
2022-11-20T19:24:28.930Z,22.90
2022-11-20T19:26:56.395Z,11.98
2022-11-20T19:29:25.326Z,16.65
2022-11-20T19:31:52.623Z,13.80
2022-11-20T19:34:19.655Z,16.23
2022-11-20T19:36:46.781Z,16.73
2022-11-20T19:39:15.551Z,20.90
2022-11-20T19:41:42.488Z,15.82
2022-11-20T19:44:12.505Z,10.43
2022-11-20T19:46:40.152Z,12.23
2022-11-20T19:49:10.386Z,14.35
2022-11-20T19:51:39.056Z,13.80
2022-11-20T19:54:06.695Z,11.98
2022-11-20T19:56:34.641Z,10.95
2022-11-20T19:59:01.850Z,8.27
2022-11-20T20:01:31.219Z,5.90
2022-11-20T20:04:05.463Z,6.85
2022-11-20T20:06:34.076Z,10.55
2022-11-20T20:09:12.050Z,4.78
2022-11-20T20:11:39.761Z,5.45
2022-11-20T20:14:13.805Z,5.60
2022-11-20T20:16:41.956Z,6.65
2022-11-20T20:19:13.329Z,8.43
2022-11-20T20:21:41.263Z,9.70
2022-11-20T20:24:09.409Z,7.93
2022-11-20T20:26:36.772Z,6.35
2022-11-20T20:29:04.089Z,6.50
2022-11-20T20:31:32.610Z,4.55
2022-11-20T20:33:59.783Z,4.30
2022-11-20T20:36:26.707Z,4.43
2022-11-20T20:38:55.149Z,3.80
2022-11-20T20:41:23.357Z,5.45
2022-11-20T20:44:08.733Z,10.63
2022-11-20T20:46:35.715Z,7.65
2022-11-20T20:49:02.757Z,10.02
2022-11-20T20:51:29.710Z,8.00
2022-11-20T20:53:56.660Z,7.00
2022-11-20T20:56:23.515Z,5.18
2022-11-20T20:58:50.320Z,5.43
2022-11-20T21:01:22.817Z,5.88
2022-11-20T21:03:49.764Z,6.28
2022-11-20T21:06:16.602Z,7.97
2022-11-20T21:08:44.596Z,7.25
2022-11-20T21:11:17.199Z,7.28
2022-11-20T21:13:45.472Z,6.75
2022-11-20T21:16:13.647Z,6.38
2022-11-20T21:18:40.878Z,6.38
2022-11-20T21:21:29.945Z,6.78
2022-11-20T21:23:56.997Z,7.32
2022-11-20T21:26:23.987Z,7.28
2022-11-20T21:28:50.897Z,6.25
2022-11-20T21:31:23.575Z,7.47
2022-11-20T21:33:52.497Z,9.00
2022-11-20T21:36:28.434Z,12.80
2022-11-20T21:38:56.915Z,11.75
2022-11-20T21:41:25.291Z,10.98
2022-11-20T21:44:23.532Z,9.57
2022-11-20T21:46:42.290Z,8.43
2022-11-20T21:49:09.679Z,7.85
2022-11-20T21:51:36.674Z,11.05
2022-11-20T21:54:03.722Z,8.40
2022-11-20T21:56:30.667Z,10.15
2022-11-20T21:58:58.819Z,10.32
2022-11-20T22:01:28.186Z,9.82
2022-11-20T22:04:02.622Z,13.25
2022-11-20T22:06:34.488Z,9.95
2022-11-20T22:09:02.416Z,11.75
2022-11-20T22:11:29.583Z,8.85
2022-11-20T22:14:15.376Z,9.75
2022-11-20T22:16:43.202Z,30.15
2022-11-20T22:19:10.186Z,15.75
2022-11-20T22:21:39.470Z,9.10
2022-11-20T22:24:06.532Z,10.35
2022-11-20T22:26:39.978Z,9.43
2022-11-20T22:29:08.423Z,8.65
2022-11-20T22:31:35.333Z,8.65
2022-11-20T22:34:02.686Z,8.85
2022-11-20T22:36:30.969Z,7.82
2022-11-20T22:38:58.299Z,6.30
2022-11-20T22:41:28.930Z,7.22
2022-11-20T22:44:04.351Z,7.40
2022-11-20T22:46:34.361Z,6.38
2022-11-20T22:49:04.293Z,6.38
2022-11-20T22:51:33.966Z,6.50
2022-11-20T22:54:01.327Z,6.75
2022-11-20T22:56:28.178Z,6.07
2022-11-20T22:58:55.734Z,7.10
2022-11-20T23:01:25.325Z,5.95
2022-11-20T23:03:57.534Z,5.68
2022-11-20T23:06:25.187Z,6.38
2022-11-20T23:08:53.049Z,6.15
2022-11-20T23:11:28.361Z,6.53
2022-11-20T23:13:58.284Z,5.97
2022-11-20T23:16:27.213Z,6.30
2022-11-20T23:18:58.696Z,6.65
2022-11-20T23:21:26.483Z,6.30
2022-11-20T23:23:55.688Z,6.70
2022-11-20T23:26:24.865Z,6.20
2022-11-20T23:28:54.130Z,6.38
2022-11-20T23:31:21.410Z,6.22
2022-11-20T23:33:48.246Z,6.45
2022-11-20T23:36:15.738Z,6.90
2022-11-20T23:38:42.940Z,6.40
2022-11-20T23:41:10.158Z,6.15
2022-11-20T23:43:37.099Z,7.28
2022-11-20T23:46:04.777Z,6.20
2022-11-20T23:48:34.879Z,6.25
2022-11-20T23:51:02.654Z,5.55
2022-11-20T23:53:29.737Z,5.60
2022-11-20T23:55:58.530Z,6.78
2022-11-20T23:58:27.055Z,7.07
